Sabine, Louisiana
Current Conditions -  °F | °C
As of 1:56 PM on Friday 31 Oct 2014 (Local Time) from KAQV Reporting Station
Clear Clear  
Wind Chill: 73°   Ceiling: Unl
Heat Index: 73°   Visibility: 10mi
Dew Point: 45°   Wind: 8mph
Humidity: 37%   Direction: 20°NNE
Pressure: 30.12"   Gusts: NA
Location:  31.6044°N, 93.4433°W
Report Text: KAQV 311856Z AUTO 02007KT 340V060 10SM CLR 23/07 A3012 RMK AO2 SLP200 T02280072
Loading
Personal Weather Stations






























Interactive Weather Map
Tropical Storm Tracking
New forecast layout! Learn more

10-Day Weather Forecast

Advertisements
Track Severe Weather on mobile